sensor_id;sensor_type;location;lat;lon;timestamp;P1;P2;P0
49064;PMS5003;34876;51.464;-0.150;2023-10-13T00:00:16;1;1;
49064;PMS5003;34876;51.464;-0.150;2023-10-13T00:03:30;1;1;
49064;PMS5003;34876;51.464;-0.150;2023-10-13T00:06:23;2;2;
49064;PMS5003;34876;51.464;-0.150;2023-10-13T00:08:58;1;1;
49064;PMS5003;34876;51.464;-0.150;2023-10-13T00:11:31;3;2;
49064;PMS5003;34876;51.464;-0.150;2023-10-13T00:14:08;1;1;
49064;PMS5003;34876;51.464;-0.150;2023-10-13T00:16:42;1;1;
49064;PMS5003;34876;51.464;-0.150;2023-10-13T00:19:16;1;1;
49064;PMS5003;34876;51.464;-0.150;2023-10-13T00:21:46;1;1;
49064;PMS5003;34876;51.464;-0.150;2023-10-13T00:24:16;1;1;
49064;PMS5003;34876;51.464;-0.150;2023-10-13T00:26:46;1;1;
49064;PMS5003;34876;51.464;-0.150;2023-10-13T00:29:16;3;1;
49064;PMS5003;34876;51.464;-0.150;2023-10-13T00:31:48;1;1;
49064;PMS5003;34876;51.464;-0.150;2023-10-13T00:34:18;1;1;
49064;PMS5003;34876;51.464;-0.150;2023-10-13T00:36:47;2;2;
49064;PMS5003;34876;51.464;-0.150;2023-10-13T00:39:16;0;0;
49064;PMS5003;34876;51.464;-0.150;2023-10-13T00:41:47;2;2;
49064;PMS5003;34876;51.464;-0.150;2023-10-13T00:44:23;0;0;
49064;PMS5003;34876;51.464;-0.150;2023-10-13T00:46:52;2;2;
49064;PMS5003;34876;51.464;-0.150;2023-10-13T00:49:24;0;0;
49064;PMS5003;34876;51.464;-0.150;2023-10-13T00:51:55;1;1;
49064;PMS5003;34876;51.464;-0.150;2023-10-13T00:54:26;0;0;
49064;PMS5003;34876;51.464;-0.150;2023-10-13T00:56:56;2;2;
49064;PMS5003;34876;51.464;-0.150;2023-10-13T00:59:26;1;1;
49064;PMS5003;34876;51.464;-0.150;2023-10-13T01:01:54;1;1;
49064;PMS5003;34876;51.464;-0.150;2023-10-13T01:04:29;0;0;
49064;PMS5003;34876;51.464;-0.150;2023-10-13T01:06:59;2;2;
49064;PMS5003;34876;51.464;-0.150;2023-10-13T01:09:39;1;1;
49064;PMS5003;34876;51.464;-0.150;2023-10-13T01:12:10;1;1;
49064;PMS5003;34876;51.464;-0.150;2023-10-13T01:14:40;1;1;
49064;PMS5003;34876;51.464;-0.150;2023-10-13T01:17:10;1;1;
49064;PMS5003;34876;51.464;-0.150;2023-10-13T01:19:39;1;1;
49064;PMS5003;34876;51.464;-0.150;2023-10-13T01:22:13;0;0;
49064;PMS5003;34876;51.464;-0.150;2023-10-13T01:24:42;2;2;
49064;PMS5003;34876;51.464;-0.150;2023-10-13T01:27:10;2;1;
49064;PMS5003;34876;51.464;-0.150;2023-10-13T01:29:39;0;0;
49064;PMS5003;34876;51.464;-0.150;2023-10-13T01:32:08;1;1;
49064;PMS5003;34876;51.464;-0.150;2023-10-13T01:34:36;0;0;
49064;PMS5003;34876;51.464;-0.150;2023-10-13T01:37:20;1;1;
49064;PMS5003;34876;51.464;-0.150;2023-10-13T01:39:49;1;1;
49064;PMS5003;34876;51.464;-0.150;2023-10-13T01:42:19;1;1;
49064;PMS5003;34876;51.464;-0.150;2023-10-13T01:44:50;1;1;
49064;PMS5003;34876;51.464;-0.150;2023-10-13T01:47:19;1;1;
49064;PMS5003;34876;51.464;-0.150;2023-10-13T01:49:49;1;1;
49064;PMS5003;34876;51.464;-0.150;2023-10-13T01:52:27;0;0;
49064;PMS5003;34876;51.464;-0.150;2023-10-13T01:54:57;1;1;
49064;PMS5003;34876;51.464;-0.150;2023-10-13T01:57:27;0;0;
49064;PMS5003;34876;51.464;-0.150;2023-10-13T01:59:56;0;0;
49064;PMS5003;34876;51.464;-0.150;2023-10-13T02:02:24;0;0;
49064;PMS5003;34876;51.464;-0.150;2023-10-13T02:04:54;0;0;
49064;PMS5003;34876;51.464;-0.150;2023-10-13T02:07:23;1;1;
49064;PMS5003;34876;51.464;-0.150;2023-10-13T02:09:53;1;1;
49064;PMS5003;34876;51.464;-0.150;2023-10-13T02:12:23;0;0;
49064;PMS5003;34876;51.464;-0.150;2023-10-13T02:14:52;1;1;
49064;PMS5003;34876;51.464;-0.150;2023-10-13T02:17:22;1;1;
49064;PMS5003;34876;51.464;-0.150;2023-10-13T02:19:56;0;0;
49064;PMS5003;34876;51.464;-0.150;2023-10-13T02:22:32;2;2;
49064;PMS5003;34876;51.464;-0.150;2023-10-13T02:25:01;0;0;
49064;PMS5003;34876;51.464;-0.150;2023-10-13T02:27:29;0;0;
49064;PMS5003;34876;51.464;-0.150;2023-10-13T02:30:07;0;0;
49064;PMS5003;34876;51.464;-0.150;2023-10-13T02:32:37;1;1;
49064;PMS5003;34876;51.464;-0.150;2023-10-13T02:35:09;1;1;
49064;PMS5003;34876;51.464;-0.150;2023-10-13T02:37:38;1;1;
49064;PMS5003;34876;51.464;-0.150;2023-10-13T02:40:16;1;1;
49064;PMS5003;34876;51.464;-0.150;2023-10-13T02:42:45;1;1;
49064;PMS5003;34876;51.464;-0.150;2023-10-13T02:45:14;0;0;
49064;PMS5003;34876;51.464;-0.150;2023-10-13T02:47:49;1;1;
49064;PMS5003;34876;51.464;-0.150;2023-10-13T02:50:21;0;0;
49064;PMS5003;34876;51.464;-0.150;2023-10-13T02:52:50;1;1;
49064;PMS5003;34876;51.464;-0.150;2023-10-13T02:55:20;0;0;
49064;PMS5003;34876;51.464;-0.150;2023-10-13T02:58:01;0;0;
49064;PMS5003;34876;51.464;-0.150;2023-10-13T03:00:30;1;1;
49064;PMS5003;34876;51.464;-0.150;2023-10-13T03:03:00;0;0;
49064;PMS5003;34876;51.464;-0.150;2023-10-13T03:05:35;0;0;
49064;PMS5003;34876;51.464;-0.150;2023-10-13T03:08:29;0;0;
49064;PMS5003;34876;51.464;-0.150;2023-10-13T03:10:59;0;0;
49064;PMS5003;34876;51.464;-0.150;2023-10-13T03:13:28;0;0;
49064;PMS5003;34876;51.464;-0.150;2023-10-13T03:16:10;0;0;
49064;PMS5003;34876;51.464;-0.150;2023-10-13T03:18:47;0;0;
49064;PMS5003;34876;51.464;-0.150;2023-10-13T03:21:21;1;1;
49064;PMS5003;34876;51.464;-0.150;2023-10-13T03:23:51;0;0;
49064;PMS5003;34876;51.464;-0.150;2023-10-13T03:26:20;1;1;
49064;PMS5003;34876;51.464;-0.150;2023-10-13T03:28:48;2;0;
49064;PMS5003;34876;51.464;-0.150;2023-10-13T03:31:19;0;0;
49064;PMS5003;34876;51.464;-0.150;2023-10-13T03:33:54;1;1;
49064;PMS5003;34876;51.464;-0.150;2023-10-13T03:36:26;0;0;
49064;PMS5003;34876;51.464;-0.150;2023-10-13T03:38:55;0;0;
49064;PMS5003;34876;51.464;-0.150;2023-10-13T03:41:36;0;0;
49064;PMS5003;34876;51.464;-0.150;2023-10-13T03:44:11;0;0;
49064;PMS5003;34876;51.464;-0.150;2023-10-13T03:46:40;0;0;
49064;PMS5003;34876;51.464;-0.150;2023-10-13T03:49:10;0;0;
49064;PMS5003;34876;51.464;-0.150;2023-10-13T03:51:47;2;0;
49064;PMS5003;34876;51.464;-0.150;2023-10-13T03:54:18;1;0;
49064;PMS5003;34876;51.464;-0.150;2023-10-13T03:56:47;0;0;
49064;PMS5003;34876;51.464;-0.150;2023-10-13T03:59:22;0;0;
49064;PMS5003;34876;51.464;-0.150;2023-10-13T04:01:50;0;0;
49064;PMS5003;34876;51.464;-0.150;2023-10-13T04:04:25;0;0;
49064;PMS5003;34876;51.464;-0.150;2023-10-13T04:06:56;1;1;
49064;PMS5003;34876;51.464;-0.150;2023-10-13T04:09:26;0;0;
49064;PMS5003;34876;51.464;-0.150;2023-10-13T04:11:57;0;0;
49064;PMS5003;34876;51.464;-0.150;2023-10-13T04:14:28;0;0;
49064;PMS5003;34876;51.464;-0.150;2023-10-13T04:16:58;1;1;
49064;PMS5003;34876;51.464;-0.150;2023-10-13T04:19:28;0;0;
49064;PMS5003;34876;51.464;-0.150;2023-10-13T04:22:03;1;1;
49064;PMS5003;34876;51.464;-0.150;2023-10-13T04:24:33;1;1;
49064;PMS5003;34876;51.464;-0.150;2023-10-13T04:27:01;0;0;
49064;PMS5003;34876;51.464;-0.150;2023-10-13T04:29:32;0;0;
49064;PMS5003;34876;51.464;-0.150;2023-10-13T04:32:01;0;0;
49064;PMS5003;34876;51.464;-0.150;2023-10-13T04:34:29;0;0;
49064;PMS5003;34876;51.464;-0.150;2023-10-13T04:37:29;0;0;
49064;PMS5003;34876;51.464;-0.150;2023-10-13T04:39:59;2;2;
49064;PMS5003;34876;51.464;-0.150;2023-10-13T04:42:34;1;1;
49064;PMS5003;34876;51.464;-0.150;2023-10-13T04:45:10;0;0;
49064;PMS5003;34876;51.464;-0.150;2023-10-13T04:47:40;0;0;
49064;PMS5003;34876;51.464;-0.150;2023-10-13T04:50:11;2;2;
49064;PMS5003;34876;51.464;-0.150;2023-10-13T04:52:45;1;1;
49064;PMS5003;34876;51.464;-0.150;2023-10-13T04:55:13;3;1;
49064;PMS5003;34876;51.464;-0.150;2023-10-13T04:57:43;5;2;
49064;PMS5003;34876;51.464;-0.150;2023-10-13T05:01:00;1;1;
49064;PMS5003;34876;51.464;-0.150;2023-10-13T05:03:41;2;2;
49064;PMS5003;34876;51.464;-0.150;2023-10-13T05:06:12;1;1;
49064;PMS5003;34876;51.464;-0.150;2023-10-13T05:08:46;1;1;
49064;PMS5003;34876;51.464;-0.150;2023-10-13T05:11:17;1;1;
49064;PMS5003;34876;51.464;-0.150;2023-10-13T05:13:46;1;0;
49064;PMS5003;34876;51.464;-0.150;2023-10-13T05:16:47;0;0;
49064;PMS5003;34876;51.464;-0.150;2023-10-13T05:19:20;2;2;
49064;PMS5003;34876;51.464;-0.150;2023-10-13T05:21:50;1;1;
49064;PMS5003;34876;51.464;-0.150;2023-10-13T05:24:19;2;1;
49064;PMS5003;34876;51.464;-0.150;2023-10-13T05:26:52;0;0;
49064;PMS5003;34876;51.464;-0.150;2023-10-13T05:29:32;1;1;
49064;PMS5003;34876;51.464;-0.150;2023-10-13T05:32:02;0;0;
49064;PMS5003;34876;51.464;-0.150;2023-10-13T05:34:32;1;0;
49064;PMS5003;34876;51.464;-0.150;2023-10-13T05:37:03;1;1;
49064;PMS5003;34876;51.464;-0.150;2023-10-13T05:39:32;1;1;
49064;PMS5003;34876;51.464;-0.150;2023-10-13T05:42:01;1;1;
49064;PMS5003;34876;51.464;-0.150;2023-10-13T05:44:31;1;1;
49064;PMS5003;34876;51.464;-0.150;2023-10-13T05:47:00;1;1;
49064;PMS5003;34876;51.464;-0.150;2023-10-13T05:49:29;1;1;
49064;PMS5003;34876;51.464;-0.150;2023-10-13T05:51:57;0;0;
49064;PMS5003;34876;51.464;-0.150;2023-10-13T05:54:26;0;0;
49064;PMS5003;34876;51.464;-0.150;2023-10-13T05:56:55;1;1;
49064;PMS5003;34876;51.464;-0.150;2023-10-13T05:59:25;2;2;
49064;PMS5003;34876;51.464;-0.150;2023-10-13T06:01:55;2;2;
49064;PMS5003;34876;51.464;-0.150;2023-10-13T06:04:29;1;1;
49064;PMS5003;34876;51.464;-0.150;2023-10-13T06:07:02;2;2;
49064;PMS5003;34876;51.464;-0.150;2023-10-13T06:09:33;1;1;
49064;PMS5003;34876;51.464;-0.150;2023-10-13T06:12:07;2;2;
49064;PMS5003;34876;51.464;-0.150;2023-10-13T06:14:38;2;2;
49064;PMS5003;34876;51.464;-0.150;2023-10-13T06:17:11;3;2;
49064;PMS5003;34876;51.464;-0.150;2023-10-13T06:19:41;3;2;
49064;PMS5003;34876;51.464;-0.150;2023-10-13T06:22:11;2;1;
49064;PMS5003;34876;51.464;-0.150;2023-10-13T06:24:40;2;2;
49064;PMS5003;34876;51.464;-0.150;2023-10-13T06:27:14;4;3;
49064;PMS5003;34876;51.464;-0.150;2023-10-13T06:29:44;2;0;
49064;PMS5003;34876;51.464;-0.150;2023-10-13T06:32:19;1;1;
49064;PMS5003;34876;51.464;-0.150;2023-10-13T06:34:49;5;4;
49064;PMS5003;34876;51.464;-0.150;2023-10-13T06:37:18;5;3;
49064;PMS5003;34876;51.464;-0.150;2023-10-13T06:39:47;2;2;
49064;PMS5003;34876;51.464;-0.150;2023-10-13T06:42:16;2;2;
49064;PMS5003;34876;51.464;-0.150;2023-10-13T06:44:46;3;3;
49064;PMS5003;34876;51.464;-0.150;2023-10-13T06:47:15;4;2;
49064;PMS5003;34876;51.464;-0.150;2023-10-13T06:49:48;2;2;
49064;PMS5003;34876;51.464;-0.150;2023-10-13T06:52:17;5;2;
49064;PMS5003;34876;51.464;-0.150;2023-10-13T06:54:45;5;3;
49064;PMS5003;34876;51.464;-0.150;2023-10-13T06:57:32;2;2;
49064;PMS5003;34876;51.464;-0.150;2023-10-13T07:00:09;3;3;
49064;PMS5003;34876;51.464;-0.150;2023-10-13T07:02:40;1;1;
49064;PMS5003;34876;51.464;-0.150;2023-10-13T07:05:09;3;3;
49064;PMS5003;34876;51.464;-0.150;2023-10-13T07:07:38;3;2;
49064;PMS5003;34876;51.464;-0.150;2023-10-13T07:10:13;4;4;
49064;PMS5003;34876;51.464;-0.150;2023-10-13T07:12:43;2;2;
49064;PMS5003;34876;51.464;-0.150;2023-10-13T07:15:12;5;4;
49064;PMS5003;34876;51.464;-0.150;2023-10-13T07:17:42;3;3;
49064;PMS5003;34876;51.464;-0.150;2023-10-13T07:20:19;4;4;
49064;PMS5003;34876;51.464;-0.150;2023-10-13T07:22:49;3;2;
49064;PMS5003;34876;51.464;-0.150;2023-10-13T07:25:23;3;3;
49064;PMS5003;34876;51.464;-0.150;2023-10-13T07:27:52;3;3;
49064;PMS5003;34876;51.464;-0.150;2023-10-13T07:30:22;1;1;
49064;PMS5003;34876;51.464;-0.150;2023-10-13T07:32:52;5;3;
49064;PMS5003;34876;51.464;-0.150;2023-10-13T07:35:41;5;4;
49064;PMS5003;34876;51.464;-0.150;2023-10-13T07:38:10;3;3;
49064;PMS5003;34876;51.464;-0.150;2023-10-13T07:40:40;3;3;
49064;PMS5003;34876;51.464;-0.150;2023-10-13T07:43:23;3;3;
49064;PMS5003;34876;51.464;-0.150;2023-10-13T07:45:57;4;4;
49064;PMS5003;34876;51.464;-0.150;2023-10-13T07:48:32;2;2;
49064;PMS5003;34876;51.464;-0.150;2023-10-13T07:51:03;5;4;
49064;PMS5003;34876;51.464;-0.150;2023-10-13T07:53:36;3;3;
49064;PMS5003;34876;51.464;-0.150;2023-10-13T07:56:10;4;2;
49064;PMS5003;34876;51.464;-0.150;2023-10-13T07:58:39;6;5;
49064;PMS5003;34876;51.464;-0.150;2023-10-13T08:01:08;3;3;
49064;PMS5003;34876;51.464;-0.150;2023-10-13T08:03:41;5;5;
49064;PMS5003;34876;51.464;-0.150;2023-10-13T08:06:11;5;3;
49064;PMS5003;34876;51.464;-0.150;2023-10-13T08:08:43;5;3;
49064;PMS5003;34876;51.464;-0.150;2023-10-13T08:11:13;2;2;
49064;PMS5003;34876;51.464;-0.150;2023-10-13T08:14:00;5;3;
49064;PMS5003;34876;51.464;-0.150;2023-10-13T08:16:30;4;3;
49064;PMS5003;34876;51.464;-0.150;2023-10-13T08:19:24;4;4;
49064;PMS5003;34876;51.464;-0.150;2023-10-13T08:22:04;4;4;
49064;PMS5003;34876;51.464;-0.150;2023-10-13T08:24:40;4;4;
49064;PMS5003;34876;51.464;-0.150;2023-10-13T08:27:10;6;6;
49064;PMS5003;34876;51.464;-0.150;2023-10-13T08:29:41;5;5;
49064;PMS5003;34876;51.464;-0.150;2023-10-13T08:32:10;4;4;
49064;PMS5003;34876;51.464;-0.150;2023-10-13T08:34:40;6;4;
49064;PMS5003;34876;51.464;-0.150;2023-10-13T08:37:10;6;6;
49064;PMS5003;34876;51.464;-0.150;2023-10-13T08:39:51;3;3;
49064;PMS5003;34876;51.464;-0.150;2023-10-13T08:42:22;5;3;
49064;PMS5003;34876;51.464;-0.150;2023-10-13T08:44:57;8;7;
49064;PMS5003;34876;51.464;-0.150;2023-10-13T08:47:31;4;4;
49064;PMS5003;34876;51.464;-0.150;2023-10-13T08:50:01;4;4;
49064;PMS5003;34876;51.464;-0.150;2023-10-13T08:52:35;6;5;
49064;PMS5003;34876;51.464;-0.150;2023-10-13T08:55:07;6;6;
49064;PMS5003;34876;51.464;-0.150;2023-10-13T08:57:36;5;5;
49064;PMS5003;34876;51.464;-0.150;2023-10-13T09:00:11;4;4;
49064;PMS5003;34876;51.464;-0.150;2023-10-13T09:02:41;6;6;
49064;PMS5003;34876;51.464;-0.150;2023-10-13T09:05:10;6;4;
49064;PMS5003;34876;51.464;-0.150;2023-10-13T09:07:44;4;4;
49064;PMS5003;34876;51.464;-0.150;2023-10-13T09:10:22;4;4;
49064;PMS5003;34876;51.464;-0.150;2023-10-13T09:12:53;8;6;
49064;PMS5003;34876;51.464;-0.150;2023-10-13T09:15:28;6;5;
49064;PMS5003;34876;51.464;-0.150;2023-10-13T09:17:59;4;4;
49064;PMS5003;34876;51.464;-0.150;2023-10-13T09:20:33;4;4;
49064;PMS5003;34876;51.464;-0.150;2023-10-13T09:23:07;4;4;
49064;PMS5003;34876;51.464;-0.150;2023-10-13T09:25:41;6;6;
49064;PMS5003;34876;51.464;-0.150;2023-10-13T09:28:11;7;6;
49064;PMS5003;34876;51.464;-0.150;2023-10-13T09:30:42;8;5;
49064;PMS5003;34876;51.464;-0.150;2023-10-13T09:33:13;6;5;
49064;PMS5003;34876;51.464;-0.150;2023-10-13T09:35:47;7;6;
49064;PMS5003;34876;51.464;-0.150;2023-10-13T09:38:16;5;5;
49064;PMS5003;34876;51.464;-0.150;2023-10-13T09:40:46;7;7;
49064;PMS5003;34876;51.464;-0.150;2023-10-13T09:43:16;8;5;
49064;PMS5003;34876;51.464;-0.150;2023-10-13T09:45:46;7;7;
49064;PMS5003;34876;51.464;-0.150;2023-10-13T09:48:17;6;6;
49064;PMS5003;34876;51.464;-0.150;2023-10-13T09:50:55;5;5;
49064;PMS5003;34876;51.464;-0.150;2023-10-13T09:53:31;7;5;
49064;PMS5003;34876;51.464;-0.150;2023-10-13T09:56:03;7;6;
49064;PMS5003;34876;51.464;-0.150;2023-10-13T09:58:42;5;5;
49064;PMS5003;34876;51.464;-0.150;2023-10-13T10:01:23;8;6;
49064;PMS5003;34876;51.464;-0.150;2023-10-13T10:04:05;4;4;
49064;PMS5003;34876;51.464;-0.150;2023-10-13T10:06:36;9;9;
49064;PMS5003;34876;51.464;-0.150;2023-10-13T10:09:06;5;5;
49064;PMS5003;34876;51.464;-0.150;2023-10-13T10:12:42;6;6;
49064;PMS5003;34876;51.464;-0.150;2023-10-13T10:15:22;9;8;
49064;PMS5003;34876;51.464;-0.150;2023-10-13T10:17:56;7;7;
49064;PMS5003;34876;51.464;-0.150;2023-10-13T10:20:29;6;6;
49064;PMS5003;34876;51.464;-0.150;2023-10-13T10:22:59;7;6;
49064;PMS5003;34876;51.464;-0.150;2023-10-13T10:25:29;7;7;
49064;PMS5003;34876;51.464;-0.150;2023-10-13T10:28:01;6;5;
49064;PMS5003;34876;51.464;-0.150;2023-10-13T10:30:31;6;6;
49064;PMS5003;34876;51.464;-0.150;2023-10-13T10:33:02;6;6;
49064;PMS5003;34876;51.464;-0.150;2023-10-13T10:35:31;7;7;
49064;PMS5003;34876;51.464;-0.150;2023-10-13T10:38:09;6;6;
49064;PMS5003;34876;51.464;-0.150;2023-10-13T10:40:48;9;9;
49064;PMS5003;34876;51.464;-0.150;2023-10-13T10:43:19;5;5;
49064;PMS5003;34876;51.464;-0.150;2023-10-13T10:45:48;6;6;
49064;PMS5003;34876;51.464;-0.150;2023-10-13T10:48:19;10;10;
49064;PMS5003;34876;51.464;-0.150;2023-10-13T10:50:53;10;9;
49064;PMS5003;34876;51.464;-0.150;2023-10-13T10:53:24;7;6;
49064;PMS5003;34876;51.464;-0.150;2023-10-13T10:55:54;9;9;
49064;PMS5003;34876;51.464;-0.150;2023-10-13T10:58:33;6;6;
49064;PMS5003;34876;51.464;-0.150;2023-10-13T11:01:05;8;7;
49064;PMS5003;34876;51.464;-0.150;2023-10-13T11:03:35;8;8;
49064;PMS5003;34876;51.464;-0.150;2023-10-13T11:06:19;11;8;
49064;PMS5003;34876;51.464;-0.150;2023-10-13T11:08:48;9;7;
49064;PMS5003;34876;51.464;-0.150;2023-10-13T11:11:28;10;8;
49064;PMS5003;34876;51.464;-0.150;2023-10-13T11:13:57;8;8;
49064;PMS5003;34876;51.464;-0.150;2023-10-13T11:16:27;9;8;
49064;PMS5003;34876;51.464;-0.150;2023-10-13T11:19:03;8;8;
49064;PMS5003;34876;51.464;-0.150;2023-10-13T11:21:35;7;7;
49064;PMS5003;34876;51.464;-0.150;2023-10-13T11:24:04;8;7;
49064;PMS5003;34876;51.464;-0.150;2023-10-13T11:26:35;11;11;
49064;PMS5003;34876;51.464;-0.150;2023-10-13T11:29:04;9;8;
49064;PMS5003;34876;51.464;-0.150;2023-10-13T11:31:32;8;8;
49064;PMS5003;34876;51.464;-0.150;2023-10-13T11:34:01;6;5;
49064;PMS5003;34876;51.464;-0.150;2023-10-13T11:36:31;8;7;
49064;PMS5003;34876;51.464;-0.150;2023-10-13T11:39:01;9;9;
49064;PMS5003;34876;51.464;-0.150;2023-10-13T11:41:30;8;8;
49064;PMS5003;34876;51.464;-0.150;2023-10-13T11:44:00;6;5;
49064;PMS5003;34876;51.464;-0.150;2023-10-13T11:46:29;8;8;
49064;PMS5003;34876;51.464;-0.150;2023-10-13T11:48:58;9;9;
49064;PMS5003;34876;51.464;-0.150;2023-10-13T11:51:27;7;7;
49064;PMS5003;34876;51.464;-0.150;2023-10-13T11:53:56;11;9;
49064;PMS5003;34876;51.464;-0.150;2023-10-13T11:56:31;9;8;
49064;PMS5003;34876;51.464;-0.150;2023-10-13T11:59:00;8;8;
49064;PMS5003;34876;51.464;-0.150;2023-10-13T12:01:48;4;4;
49064;PMS5003;34876;51.464;-0.150;2023-10-13T12:04:18;7;7;
49064;PMS5003;34876;51.464;-0.150;2023-10-13T12:06:47;6;6;
49064;PMS5003;34876;51.464;-0.150;2023-10-13T12:09:16;7;7;
49064;PMS5003;34876;51.464;-0.150;2023-10-13T12:11:46;7;7;
49064;PMS5003;34876;51.464;-0.150;2023-10-13T12:14:18;5;5;
49064;PMS5003;34876;51.464;-0.150;2023-10-13T12:16:47;7;6;
49064;PMS5003;34876;51.464;-0.150;2023-10-13T12:19:16;10;10;
49064;PMS5003;34876;51.464;-0.150;2023-10-13T12:21:47;8;8;
49064;PMS5003;34876;51.464;-0.150;2023-10-13T12:24:23;11;8;
49064;PMS5003;34876;51.464;-0.150;2023-10-13T12:26:54;8;8;
49064;PMS5003;34876;51.464;-0.150;2023-10-13T12:29:23;7;7;
49064;PMS5003;34876;51.464;-0.150;2023-10-13T12:32:10;6;6;
49064;PMS5003;34876;51.464;-0.150;2023-10-13T12:34:44;5;5;
49064;PMS5003;34876;51.464;-0.150;2023-10-13T12:37:13;7;6;
49064;PMS5003;34876;51.464;-0.150;2023-10-13T12:39:43;7;6;
49064;PMS5003;34876;51.464;-0.150;2023-10-13T12:42:12;9;6;
49064;PMS5003;34876;51.464;-0.150;2023-10-13T12:44:42;10;9;
49064;PMS5003;34876;51.464;-0.150;2023-10-13T12:47:11;6;6;
49064;PMS5003;34876;51.464;-0.150;2023-10-13T12:49:40;7;7;
49064;PMS5003;34876;51.464;-0.150;2023-10-13T12:52:14;6;6;
49064;PMS5003;34876;51.464;-0.150;2023-10-13T12:54:45;6;6;
49064;PMS5003;34876;51.464;-0.150;2023-10-13T12:57:14;7;7;
49064;PMS5003;34876;51.464;-0.150;2023-10-13T12:59:44;9;9;
49064;PMS5003;34876;51.464;-0.150;2023-10-13T13:02:19;5;5;
49064;PMS5003;34876;51.464;-0.150;2023-10-13T13:04:53;7;7;
49064;PMS5003;34876;51.464;-0.150;2023-10-13T13:07:24;7;6;
49064;PMS5003;34876;51.464;-0.150;2023-10-13T13:09:59;9;9;
49064;PMS5003;34876;51.464;-0.150;2023-10-13T13:12:28;5;5;
49064;PMS5003;34876;51.464;-0.150;2023-10-13T13:14:58;10;10;
49064;PMS5003;34876;51.464;-0.150;2023-10-13T13:17:27;7;6;
49064;PMS5003;34876;51.464;-0.150;2023-10-13T13:19:57;8;8;
49064;PMS5003;34876;51.464;-0.150;2023-10-13T13:22:34;8;6;
49064;PMS5003;34876;51.464;-0.150;2023-10-13T13:25:04;6;6;
49064;PMS5003;34876;51.464;-0.150;2023-10-13T13:27:39;6;6;
49064;PMS5003;34876;51.464;-0.150;2023-10-13T13:30:08;9;7;
49064;PMS5003;34876;51.464;-0.150;2023-10-13T13:32:42;11;10;
49064;PMS5003;34876;51.464;-0.150;2023-10-13T13:35:12;11;9;
49064;PMS5003;34876;51.464;-0.150;2023-10-13T13:37:43;7;7;
49064;PMS5003;34876;51.464;-0.150;2023-10-13T13:40:13;6;6;
49064;PMS5003;34876;51.464;-0.150;2023-10-13T13:42:42;7;6;
49064;PMS5003;34876;51.464;-0.150;2023-10-13T13:45:12;9;9;
49064;PMS5003;34876;51.464;-0.150;2023-10-13T13:47:41;6;6;
49064;PMS5003;34876;51.464;-0.150;2023-10-13T13:50:16;12;9;
49064;PMS5003;34876;51.464;-0.150;2023-10-13T13:52:46;9;7;
49064;PMS5003;34876;51.464;-0.150;2023-10-13T13:55:16;8;8;
49064;PMS5003;34876;51.464;-0.150;2023-10-13T13:57:45;6;6;
49064;PMS5003;34876;51.464;-0.150;2023-10-13T14:00:16;6;6;
49064;PMS5003;34876;51.464;-0.150;2023-10-13T14:02:47;8;7;
49064;PMS5003;34876;51.464;-0.150;2023-10-13T14:05:16;8;8;
49064;PMS5003;34876;51.464;-0.150;2023-10-13T14:07:45;9;7;
49064;PMS5003;34876;51.464;-0.150;2023-10-13T14:10:22;8;8;
49064;PMS5003;34876;51.464;-0.150;2023-10-13T14:13:36;5;5;
49064;PMS5003;34876;51.464;-0.150;2023-10-13T14:16:05;6;6;
49064;PMS5003;34876;51.464;-0.150;2023-10-13T14:18:35;6;6;
49064;PMS5003;34876;51.464;-0.150;2023-10-13T14:21:05;8;8;
49064;PMS5003;34876;51.464;-0.150;2023-10-13T14:23:40;5;5;
49064;PMS5003;34876;51.464;-0.150;2023-10-13T14:26:12;4;4;
49064;PMS5003;34876;51.464;-0.150;2023-10-13T14:28:42;7;7;
49064;PMS5003;34876;51.464;-0.150;2023-10-13T14:31:17;10;8;
49064;PMS5003;34876;51.464;-0.150;2023-10-13T14:33:48;8;7;
49064;PMS5003;34876;51.464;-0.150;2023-10-13T14:36:17;10;7;
49064;PMS5003;34876;51.464;-0.150;2023-10-13T14:38:47;6;5;
49064;PMS5003;34876;51.464;-0.150;2023-10-13T14:41:17;11;9;
49064;PMS5003;34876;51.464;-0.150;2023-10-13T14:43:47;10;10;
49064;PMS5003;34876;51.464;-0.150;2023-10-13T14:46:18;9;6;
49064;PMS5003;34876;51.464;-0.150;2023-10-13T14:48:48;4;4;
49064;PMS5003;34876;51.464;-0.150;2023-10-13T14:51:22;5;5;
49064;PMS5003;34876;51.464;-0.150;2023-10-13T14:53:52;9;9;
49064;PMS5003;34876;51.464;-0.150;2023-10-13T14:56:22;9;9;
49064;PMS5003;34876;51.464;-0.150;2023-10-13T14:58:53;9;9;
49064;PMS5003;34876;51.464;-0.150;2023-10-13T15:01:25;8;7;
49064;PMS5003;34876;51.464;-0.150;2023-10-13T15:03:54;10;9;
49064;PMS5003;34876;51.464;-0.150;2023-10-13T15:06:25;4;4;
49064;PMS5003;34876;51.464;-0.150;2023-10-13T15:08:57;6;6;
49064;PMS5003;34876;51.464;-0.150;2023-10-13T15:11:34;5;5;
49064;PMS5003;34876;51.464;-0.150;2023-10-13T15:14:13;9;9;
49064;PMS5003;34876;51.464;-0.150;2023-10-13T15:16:43;7;7;
49064;PMS5003;34876;51.464;-0.150;2023-10-13T15:19:13;5;5;
49064;PMS5003;34876;51.464;-0.150;2023-10-13T15:21:41;7;7;
49064;PMS5003;34876;51.464;-0.150;2023-10-13T15:24:11;8;8;
49064;PMS5003;34876;51.464;-0.150;2023-10-13T15:26:40;5;5;
49064;PMS5003;34876;51.464;-0.150;2023-10-13T15:29:16;6;5;
49064;PMS5003;34876;51.464;-0.150;2023-10-13T15:31:52;11;10;
49064;PMS5003;34876;51.464;-0.150;2023-10-13T15:34:22;6;5;
49064;PMS5003;34876;51.464;-0.150;2023-10-13T15:36:51;8;6;
49064;PMS5003;34876;51.464;-0.150;2023-10-13T15:39:24;5;5;
49064;PMS5003;34876;51.464;-0.150;2023-10-13T15:41:54;6;6;
49064;PMS5003;34876;51.464;-0.150;2023-10-13T15:44:24;7;7;
49064;PMS5003;34876;51.464;-0.150;2023-10-13T15:46:55;14;13;
49064;PMS5003;34876;51.464;-0.150;2023-10-13T15:49:24;5;5;
49064;PMS5003;34876;51.464;-0.150;2023-10-13T15:51:55;5;5;
49064;PMS5003;34876;51.464;-0.150;2023-10-13T15:54:24;4;4;
49064;PMS5003;34876;51.464;-0.150;2023-10-13T15:56:53;5;5;
49064;PMS5003;34876;51.464;-0.150;2023-10-13T15:59:24;7;7;
49064;PMS5003;34876;51.464;-0.150;2023-10-13T16:01:53;5;5;
49064;PMS5003;34876;51.464;-0.150;2023-10-13T16:04:22;6;6;
49064;PMS5003;34876;51.464;-0.150;2023-10-13T16:06:52;9;8;
49064;PMS5003;34876;51.464;-0.150;2023-10-13T16:09:26;5;5;
49064;PMS5003;34876;51.464;-0.150;2023-10-13T16:11:54;6;6;
49064;PMS5003;34876;51.464;-0.150;2023-10-13T16:14:30;7;7;
49064;PMS5003;34876;51.464;-0.150;2023-10-13T16:16:58;5;5;
49064;PMS5003;34876;51.464;-0.150;2023-10-13T16:19:33;5;5;
49064;PMS5003;34876;51.464;-0.150;2023-10-13T16:22:03;7;7;
49064;PMS5003;34876;51.464;-0.150;2023-10-13T16:24:40;5;5;
49064;PMS5003;34876;51.464;-0.150;2023-10-13T16:27:09;6;5;
49064;PMS5003;34876;51.464;-0.150;2023-10-13T16:29:44;9;7;
49064;PMS5003;34876;51.464;-0.150;2023-10-13T16:32:14;8;8;
49064;PMS5003;34876;51.464;-0.150;2023-10-13T16:34:43;5;5;
49064;PMS5003;34876;51.464;-0.150;2023-10-13T16:37:13;8;8;
49064;PMS5003;34876;51.464;-0.150;2023-10-13T16:39:47;7;7;
49064;PMS5003;34876;51.464;-0.150;2023-10-13T16:42:18;8;7;
49064;PMS5003;34876;51.464;-0.150;2023-10-13T16:44:52;5;5;
49064;PMS5003;34876;51.464;-0.150;2023-10-13T16:47:21;6;6;
49064;PMS5003;34876;51.464;-0.150;2023-10-13T16:49:50;7;7;
49064;PMS5003;34876;51.464;-0.150;2023-10-13T16:52:20;10;9;
49064;PMS5003;34876;51.464;-0.150;2023-10-13T16:55:00;10;8;
49064;PMS5003;34876;51.464;-0.150;2023-10-13T16:57:30;6;6;
49064;PMS5003;34876;51.464;-0.150;2023-10-13T17:00:10;8;6;
49064;PMS5003;34876;51.464;-0.150;2023-10-13T17:02:51;7;6;
49064;PMS5003;34876;51.464;-0.150;2023-10-13T17:05:20;8;8;
49064;PMS5003;34876;51.464;-0.150;2023-10-13T17:07:50;6;6;